Time;durP1;ratioP1;P1;durP2;ratioP2;P2;SDS_P1;SDS_P2;PMS_P1;PMS_P2;Temp;Humidity;BMP_temperature;BMP_pressure;BME280_temperature;BME280_humidity;BME280_pressure;Samples;Min_cycle;Max_cycle;Signal;HPM_P1;HPM_P2
2023/03/29 00:00:18;;;;;;;1.40;1.20;;;5.40;80.70;;;;;;2076461;28;20181;-63
2023/03/29 00:01:24;;;;;;;2.20;0.98;;;5.50;80.60;;;;;;2076294;28;20213;-63
2023/03/29 00:02:32;;;;;;;1.63;1.40;;;5.50;80.30;;;;;;2076259;28;20188;-63
2023/03/29 00:03:38;;;;;;;1.65;1.20;;;5.60;79.80;;;;;;2076496;28;20570;-63
2023/03/29 00:04:44;;;;;;;2.33;1.20;;;5.60;78.40;;;;;;2076979;28;20262;-63
2023/03/29 00:05:56;;;;;;;1.85;1.15;;;5.60;79.60;;;;;;2077004;28;20212;-63
2023/03/29 00:07:03;;;;;;;2.78;1.50;;;5.60;79.60;;;;;;2076783;28;20624;-63
2023/03/29 00:08:04;;;;;;;2.65;1.17;;;5.60;80.60;;;;;;2076451;28;20188;-63
2023/03/29 00:09:10;;;;;;;2.60;1.20;;;5.50;81.30;;;;;;2076441;28;20187;-62
2023/03/29 00:10:15;;;;;;;1.90;1.00;;;5.50;80.40;;;;;;2076486;28;20197;-62
2023/03/29 00:11:22;;;;;;;1.75;1.27;;;5.50;80.70;;;;;;2077694;28;20185;-63
2023/03/29 00:12:27;;;;;;;2.47;1.30;;;5.40;81.70;;;;;;2082786;28;20750;-63
2023/03/29 00:13:33;;;;;;;1.45;1.20;;;5.40;81.70;;;;;;2082459;28;20202;-62
2023/03/29 00:14:39;;;;;;;1.25;1.15;;;5.40;81.20;;;;;;2076710;28;20191;-63
2023/03/29 00:15:45;;;;;;;2.35;1.25;;;5.50;81.50;;;;;;2076504;28;20220;-62
2023/03/29 00:16:51;;;;;;;3.30;1.20;;;5.40;82.10;;;;;;2076656;28;20186;-63
2023/03/29 00:17:57;;;;;;;1.50;1.10;;;5.30;82.20;;;;;;2079864;28;20221;-63
2023/03/29 00:19:04;;;;;;;1.65;1.38;;;5.20;83.70;;;;;;2079496;28;20177;-62
2023/03/29 00:20:11;;;;;;;1.50;1.33;;;5.10;84.70;;;;;;2079645;28;20230;-62
2023/03/29 00:21:16;;;;;;;3.55;1.40;;;5.10;85.60;;;;;;2079482;28;20181;-63
2023/03/29 00:22:23;;;;;;;1.30;1.20;;;5.00;85.90;;;;;;2078277;28;20209;-62
2023/03/29 00:23:29;;;;;;;2.10;1.48;;;4.90;86.30;;;;;;2075522;28;20204;-62
2023/03/29 00:24:35;;;;;;;1.50;1.20;;;4.90;85.80;;;;;;2080104;28;20185;-62
2023/03/29 00:25:43;;;;;;;2.25;1.40;;;4.90;84.70;;;;;;2080563;28;20212;-62
2023/03/29 00:26:49;;;;;;;1.30;1.20;;;4.90;84.40;;;;;;2079331;28;20186;-62
2023/03/29 00:27:55;;;;;;;1.85;1.20;;;4.90;84.50;;;;;;2079075;28;20658;-62
2023/03/29 00:29:00;;;;;;;2.38;1.10;;;4.80;85.10;;;;;;2079999;28;20280;-63
2023/03/29 00:30:07;;;;;;;1.25;1.15;;;4.80;84.60;;;;;;2080592;28;20185;-62
2023/03/29 00:31:13;;;;;;;2.03;1.20;;;4.80;84.50;;;;;;2080599;28;20219;-62
2023/03/29 00:32:19;;;;;;;2.60;1.30;;;4.90;83.50;;;;;;2079712;28;20197;-63
2023/03/29 00:33:25;;;;;;;1.42;1.20;;;4.90;83.60;;;;;;2080066;28;20217;-63
2023/03/29 00:34:30;;;;;;;3.58;1.10;;;5.00;83.50;;;;;;2079225;28;20212;-63
2023/03/29 00:35:41;;;;;;;2.03;1.13;;;5.00;82.10;;;;;;2080422;28;20201;-62
2023/03/29 00:36:49;;;;;;;1.23;1.02;;;5.10;81.20;;;;;;2077143;28;20173;-63
2023/03/29 00:37:56;;;;;;;3.17;1.10;;;5.10;80.90;;;;;;2076454;28;20217;-63
2023/03/29 00:39:02;;;;;;;1.50;1.08;;;5.20;80.30;;;;;;2076965;28;20186;-63
2023/03/29 00:40:11;;;;;;;1.23;0.90;;;5.20;79.60;;;;;;2077034;28;20189;-63
2023/03/29 00:41:17;;;;;;;1.48;1.20;;;5.30;79.30;;;;;;2078280;28;20553;-63
2023/03/29 00:42:24;;;;;;;1.83;1.05;;;5.40;80.20;;;;;;2078053;28;20256;-63
2023/03/29 00:43:30;;;;;;;1.95;1.10;;;5.50;79.00;;;;;;2078057;28;20218;-63
2023/03/29 00:45:07;;;;;;;1.27;0.90;;;5.50;78.30;;;;;;2077658;28;20260;-63
2023/03/29 00:46:08;;;;;;;1.98;1.23;;;5.50;78.50;;;;;;2079547;28;20225;-62
2023/03/29 00:47:16;;;;;;;2.28;1.05;;;5.50;78.60;;;;;;2077850;28;20216;-63
2023/03/29 00:48:27;;;;;;;0.80;0.80;;;5.50;79.10;;;;;;2077877;28;20279;-63
2023/03/29 00:49:34;;;;;;;1.58;1.00;;;5.50;79.50;;;;;;2077025;28;20547;-63
2023/03/29 00:51:06;;;;;;;2.55;1.13;;;5.50;80.60;;;;;;2070642;28;20240;-61
2023/03/29 00:52:12;;;;;;;3.53;1.15;;;5.60;79.00;;;;;;2077240;28;20196;-63
2023/03/29 00:53:24;;;;;;;2.72;0.98;;;5.70;75.00;;;;;;2077289;28;20186;-62
2023/03/29 00:54:31;;;;;;;3.45;1.00;;;5.60;74.80;;;;;;2077328;28;20295;-63
2023/03/29 00:55:45;;;;;;;1.25;1.00;;;5.70;74.90;;;;;;2077766;28;20621;-63
2023/03/29 00:56:51;;;;;;;2.10;0.98;;;5.70;73.30;;;;;;2076963;28;20590;-63
2023/03/29 00:57:59;;;;;;;1.75;0.80;;;5.70;74.10;;;;;;2077284;28;20227;-63
2023/03/29 00:59:09;;;;;;;1.33;0.90;;;5.70;72.60;;;;;;2069585;28;20190;-62
2023/03/29 01:00:19;;;;;;;0.70;0.70;;;5.80;70.60;;;;;;2063268;28;20210;-63
2023/03/29 01:01:57;;;;;;;3.60;0.80;;;5.80;71.20;;;;;;2080453;28;20201;-63
2023/03/29 01:03:12;;;;;;;0.70;0.60;;;5.90;68.90;;;;;;2079690;28;20220;-62
2023/03/29 01:04:45;;;;;;;0.77;0.70;;;6.10;66.60;;;;;;2074760;28;20181;-62
2023/03/29 01:05:59;;;;;;;1.52;0.90;;;6.20;66.50;;;;;;2079294;28;20193;-63
2023/03/29 01:07:16;;;;;;;1.02;0.75;;;6.20;66.30;;;;;;2077993;28;20177;-63
2023/03/29 01:08:40;;;;;;;0.80;0.80;;;6.30;65.60;;;;;;2071820;28;20181;-63
2023/03/29 01:10:15;;;;;;;1.13;0.70;;;6.30;65.10;;;;;;2073737;28;20551;-63
2023/03/29 01:11:27;;;;;;;0.80;0.60;;;6.40;64.10;;;;;;2076699;28;20822;-62
2023/03/29 01:12:39;;;;;;;1.38;0.70;;;6.50;63.60;;;;;;2077073;28;20735;-63
2023/03/29 01:13:54;;;;;;;1.30;0.80;;;6.60;62.60;;;;;;2071574;28;20286;-62
2023/03/29 01:15:13;;;;;;;0.60;0.60;;;6.70;61.90;;;;;;2077184;28;20212;-63
2023/03/29 01:16:20;;;;;;;1.15;0.70;;;6.70;62.80;;;;;;2077158;28;20200;-63
2023/03/29 01:17:30;;;;;;;1.65;0.60;;;6.70;61.90;;;;;;2070808;28;20670;-62
2023/03/29 01:18:37;;;;;;;0.55;0.55;;;6.70;62.20;;;;;;2077662;28;20576;-63
2023/03/29 01:19:56;;;;;;;0.68;0.68;;;6.70;64.30;;;;;;2076889;28;20183;-62
2023/03/29 01:21:23;;;;;;;2.15;0.82;;;6.60;66.00;;;;;;2075279;28;20177;-63
2023/03/29 01:22:50;;;;;;;0.73;0.70;;;6.50;68.40;;;;;;2077578;28;20295;-63
2023/03/29 01:24:09;;;;;;;0.63;0.63;;;6.50;69.20;;;;;;2076775;28;20205;-62
2023/03/29 01:25:36;;;;;;;3.72;3.53;;;6.40;71.20;;;;;;2071904;28;20198;-63
2023/03/29 01:27:15;;;;;;;2.20;0.90;;;6.30;69.80;;;;;;2077247;28;20173;-63
2023/03/29 01:28:28;;;;;;;1.15;0.50;;;6.20;72.50;;;;;;2077362;28;20674;-63
2023/03/29 01:29:42;;;;;;;0.63;0.63;;;6.20;71.30;;;;;;2076925;28;20216;-62
2023/03/29 01:30:53;;;;;;;0.70;0.70;;;6.20;72.50;;;;;;2067595;28;20257;-63
2023/03/29 01:32:07;;;;;;;0.77;0.77;;;6.20;70.90;;;;;;2078721;28;20276;-63
2023/03/29 01:33:20;;;;;;;0.65;0.65;;;6.20;72.20;;;;;;2068846;28;20547;-63
2023/03/29 01:34:43;;;;;;;0.65;0.60;;;6.30;71.50;;;;;;2065656;28;20196;-62
2023/03/29 01:36:17;;;;;;;1.95;1.10;;;6.30;69.50;;;;;;2069426;28;20263;-63
2023/03/29 01:37:31;;;;;;;0.60;0.60;;;6.40;69.60;;;;;;2077557;28;20225;-63
2023/03/29 01:38:53;;;;;;;0.65;0.60;;;6.50;68.20;;;;;;2077163;28;20189;-63
2023/03/29 01:40:00;;;;;;;3.42;0.88;;;6.50;69.70;;;;;;2072115;28;20243;-63
2023/03/29 01:41:04;;;;;;;1.85;0.60;;;6.50;69.30;;;;;;2072229;28;20193;-63
2023/03/29 01:42:56;;;;;;;5.22;0.60;;;6.60;68.40;;;;;;2076379;28;20182;-62
2023/03/29 01:44:10;;;;;;;1.02;0.60;;;6.80;67.20;;;;;;2071896;28;20272;-62
2023/03/29 01:45:31;;;;;;;2.45;0.60;;;6.80;66.20;;;;;;2076713;28;20197;-63
2023/03/29 01:47:03;;;;;;;1.73;0.60;;;6.80;66.70;;;;;;2071681;28;20185;-63
2023/03/29 01:48:35;;;;;;;0.50;0.50;;;6.80;65.80;;;;;;2076571;28;20607;-63
2023/03/29 01:50:02;;;;;;;0.70;0.70;;;6.80;68.40;;;;;;2074989;28;20672;-63
2023/03/29 01:51:22;;;;;;;0.50;0.50;;;6.80;65.10;;;;;;2072005;28;20741;-63
2023/03/29 01:52:58;;;;;;;1.67;0.60;;;6.80;65.30;;;;;;2079452;28;20231;-63
2023/03/29 01:54:10;;;;;;;2.78;0.90;;;6.90;65.60;;;;;;2073848;28;20259;-63
2023/03/29 01:55:23;;;;;;;0.95;0.70;;;6.90;64.80;;;;;;2073379;28;20230;-63
2023/03/29 01:56:36;;;;;;;0.68;0.60;;;6.90;65.30;;;;;;2070792;28;20298;-63
2023/03/29 01:57:45;;;;;;;0.80;0.60;;;6.90;65.30;;;;;;2072842;28;20380;-63
2023/03/29 01:59:00;;;;;;;2.13;0.82;;;7.00;66.00;;;;;;2072786;28;20396;-63
2023/03/29 02:00:08;;;;;;;1.15;0.70;;;7.10;65.00;;;;;;2076731;28;20213;-63
2023/03/29 02:01:21;;;;;;;0.50;0.50;;;7.20;64.20;;;;;;2077302;28;20222;-63
2023/03/29 02:02:29;;;;;;;2.15;0.70;;;7.10;65.50;;;;;;2077179;28;20196;-63
2023/03/29 02:03:41;;;;;;;1.05;0.70;;;7.20;65.00;;;;;;2069979;28;20289;-63
2023/03/29 02:04:52;;;;;;;1.15;0.70;;;7.20;64.90;;;;;;2070589;28;20182;-63
2023/03/29 02:05:59;;;;;;;0.60;0.60;;;7.10;64.90;;;;;;2070808;28;20233;-63
2023/03/29 02:07:07;;;;;;;0.68;0.68;;;7.20;65.40;;;;;;2069608;28;20188;-63
2023/03/29 02:08:12;;;;;;;0.70;0.60;;;7.20;65.60;;;;;;2069710;28;20233;-63
2023/03/29 02:09:18;;;;;;;1.10;0.60;;;7.30;66.50;;;;;;2072530;28;20589;-63
2023/03/29 02:10:24;;;;;;;1.63;0.75;;;7.30;66.50;;;;;;2082584;28;20352;-63
2023/03/29 02:11:30;;;;;;;1.15;0.77;;;7.30;66.10;;;;;;2080326;28;20257;-63
2023/03/29 02:12:36;;;;;;;1.85;0.70;;;7.30;66.50;;;;;;2077792;28;20193;-63
2023/03/29 02:13:42;;;;;;;0.68;0.68;;;7.30;66.30;;;;;;2077839;28;20586;-63
2023/03/29 02:14:48;;;;;;;0.60;0.60;;;7.20;67.10;;;;;;2077586;28;20197;-63
2023/03/29 02:15:54;;;;;;;0.80;0.60;;;7.10;66.90;;;;;;2078920;28;20630;-64
2023/03/29 02:17:22;;;;;;;0.60;0.60;;;7.20;66.80;;;;;;2077107;28;20238;-65
2023/03/29 02:18:29;;;;;;;2.85;0.70;;;7.20;67.70;;;;;;2076957;28;20259;-63
2023/03/29 02:19:34;;;;;;;0.68;0.60;;;7.10;66.60;;;;;;2077644;28;20197;-63
2023/03/29 02:20:46;;;;;;;0.65;0.65;;;7.10;66.10;;;;;;2077262;28;20203;-63
2023/03/29 02:22:03;;;;;;;0.60;0.60;;;7.10;66.10;;;;;;2076717;28;20182;-63
2023/03/29 02:23:17;;;;;;;1.98;1.58;;;7.00;67.60;;;;;;2077201;28;20190;-64
2023/03/29 02:24:24;;;;;;;0.82;0.68;;;7.00;71.00;;;;;;2077395;28;20288;-63
2023/03/29 02:25:31;;;;;;;0.95;0.60;;;6.90;73.10;;;;;;2076626;28;20189;-63
2023/03/29 02:26:37;;;;;;;1.17;0.70;;;6.90;73.20;;;;;;2079558;28;20608;-63
2023/03/29 02:27:43;;;;;;;0.70;0.70;;;6.90;77.90;;;;;;2076367;28;20196;-63
2023/03/29 02:28:50;;;;;;;1.58;0.90;;;6.80;75.30;;;;;;2076734;28;20694;-63
2023/03/29 02:29:57;;;;;;;1.10;0.90;;;6.80;78.00;;;;;;2077477;28;20182;-63
2023/03/29 02:31:17;;;;;;;2.20;1.08;;;6.70;74.90;;;;;;2076928;28;20188;-63
2023/03/29 02:33:10;;;;;;;2.72;1.30;;;6.60;73.20;;;;;;2076489;28;20280;-63
2023/03/29 02:34:29;;;;;;;2.65;1.80;;;6.50;77.60;;;;;;2076537;28;20209;-63
2023/03/29 02:35:44;;;;;;;3.28;1.50;;;6.20;75.20;;;;;;2078408;28;20204;-63
2023/03/29 02:37:01;;;;;;;2.53;1.48;;;6.00;77.10;;;;;;2069904;28;20260;-62
2023/03/29 02:38:10;;;;;;;5.68;2.00;;;5.80;79.20;;;;;;2071340;28;20209;-63
2023/03/29 02:39:17;;;;;;;2.38;1.60;;;5.70;79.80;;;;;;2061965;28;20580;-63
2023/03/29 02:40:24;;;;;;;1.88;1.58;;;5.60;81.80;;;;;;2069989;28;20695;-63
2023/03/29 02:41:31;;;;;;;2.22;1.67;;;5.60;80.20;;;;;;2076825;28;20187;-63
2023/03/29 02:42:39;;;;;;;3.58;1.70;;;5.70;80.00;;;;;;2074476;28;21463;-63
2023/03/29 02:43:46;;;;;;;1.90;1.52;;;5.70;82.00;;;;;;2080183;28;20236;-63
2023/03/29 02:44:56;;;;;;;2.08;1.60;;;5.60;79.60;;;;;;2078395;28;20231;-63
2023/03/29 02:46:04;;;;;;;2.97;1.77;;;5.50;79.50;;;;;;2061889;28;20191;-63
2023/03/29 02:47:17;;;;;;;2.53;1.95;;;5.50;80.30;;;;;;2069144;28;20196;-63
2023/03/29 02:48:26;;;;;;;2.20;1.60;;;5.50;81.10;;;;;;2076764;28;20211;-63
2023/03/29 02:49:31;;;;;;;2.22;1.73;;;5.50;82.10;;;;;;2069806;28;20282;-63
2023/03/29 02:50:39;;;;;;;2.03;1.65;;;5.60;80.50;;;;;;2069568;28;20181;-63
2023/03/29 02:51:48;;;;;;;2.92;1.92;;;5.60;81.30;;;;;;2070038;28;20186;-63
2023/03/29 02:53:01;;;;;;;2.30;1.75;;;5.50;81.10;;;;;;2070050;28;20762;-63
2023/03/29 02:54:18;;;;;;;1.95;1.60;;;5.50;81.60;;;;;;2070282;28;20202;-63
2023/03/29 02:55:30;;;;;;;3.35;2.70;;;5.60;82.30;;;;;;2071829;28;21058;-63
2023/03/29 02:56:55;;;;;;;3.95;2.00;;;5.70;87.80;;;;;;2073128;28;20592;-63
2023/03/29 02:58:06;;;;;;;4.07;1.75;;;5.70;84.30;;;;;;2074184;28;20216;-63
2023/03/29 02:59:11;;;;;;;4.05;1.58;;;5.70;83.20;;;;;;2080640;28;20189;-63
2023/03/29 03:00:18;;;;;;;3.28;1.80;;;5.80;83.10;;;;;;2076109;28;20181;-63
2023/03/29 03:01:25;;;;;;;3.30;2.35;;;5.90;86.00;;;;;;2075914;28;20185;-62
2023/03/29 03:02:30;;;;;;;5.35;2.70;;;5.90;89.20;;;;;;2077072;28;20537;-63
2023/03/29 03:03:36;;;;;;;3.20;1.90;;;5.80;84.30;;;;;;2076027;28;20214;-63
2023/03/29 03:04:42;;;;;;;2.20;1.83;;;5.80;82.80;;;;;;2080251;28;20220;-63
2023/03/29 03:05:48;;;;;;;4.05;2.03;;;5.70;84.50;;;;;;2075020;28;20186;-63
2023/03/29 03:06:53;;;;;;;5.25;2.40;;;5.60;83.70;;;;;;2074756;28;20186;-63
2023/03/29 03:07:59;;;;;;;4.57;2.47;;;5.60;88.00;;;;;;2077317;28;20196;-63
2023/03/29 03:09:06;;;;;;;4.57;2.42;;;5.60;84.80;;;;;;2077055;28;20192;-63
2023/03/29 03:10:09;;;;;;;3.78;2.15;;;5.50;89.10;;;;;;2076629;28;20195;-63
2023/03/29 03:11:15;;;;;;;3.05;1.90;;;5.40;90.30;;;;;;2076604;28;20193;-62
2023/03/29 03:12:21;;;;;;;2.63;1.98;;;5.20;90.40;;;;;;2076846;28;20199;-63
2023/03/29 03:13:27;;;;;;;3.45;2.35;;;5.30;90.30;;;;;;2077076;28;20275;-63
2023/03/29 03:14:33;;;;;;;3.03;2.05;;;5.30;89.70;;;;;;2077066;28;20607;-63
2023/03/29 03:15:41;;;;;;;4.10;2.08;;;5.40;92.00;;;;;;2076692;28;20191;-63
2023/03/29 03:16:48;;;;;;;5.00;1.80;;;5.20;91.20;;;;;;2076688;28;20708;-63
2023/03/29 03:17:53;;;;;;;4.97;1.95;;;5.30;90.80;;;;;;2076510;28;20287;-62
2023/03/29 03:18:59;;;;;;;2.58;2.03;;;5.30;88.40;;;;;;2076736;28;20189;-62
2023/03/29 03:20:11;;;;;;;4.47;2.00;;;5.40;88.40;;;;;;2075121;28;20186;-63
2023/03/29 03:21:17;;;;;;;2.50;1.80;;;5.30;88.10;;;;;;2076850;28;20190;-62
2023/03/29 03:22:23;;;;;;;5.88;2.58;;;5.30;88.60;;;;;;2076735;28;20221;-63
2023/03/29 03:23:29;;;;;;;2.15;1.77;;;5.30;90.40;;;;;;2076334;28;20232;-63
2023/03/29 03:24:35;;;;;;;3.55;2.10;;;5.40;90.30;;;;;;2076822;28;20195;-63
2023/03/29 03:25:41;;;;;;;1.92;1.52;;;5.30;90.10;;;;;;2076414;28;20244;-63
2023/03/29 03:26:47;;;;;;;2.88;1.20;;;5.20;90.00;;;;;;2076529;28;20209;-63
2023/03/29 03:27:53;;;;;;;2.85;2.65;;;5.10;90.70;;;;;;2076681;28;20197;-63
2023/03/29 03:28:59;;;;;;;4.85;1.15;;;5.10;92.50;;;;;;2076464;28;20279;-63
2023/03/29 03:30:06;;;;;;;1.63;1.00;;;5.00;92.60;;;;;;2076696;28;20232;-63
2023/03/29 03:31:09;;;;;;;1.45;0.90;;;5.00;94.50;;;;;;2076880;28;20238;-63
2023/03/29 03:32:16;;;;;;;1.85;1.05;;;5.00;95.50;;;;;;2076537;28;20745;-63
2023/03/29 03:33:22;;;;;;;1.42;0.80;;;5.00;97.70;;;;;;2076279;28;20220;-63
2023/03/29 03:34:28;;;;;;;0.93;0.70;;;5.00;97.60;;;;;;2076005;28;20273;-63
2023/03/29 03:35:34;;;;;;;1.30;1.00;;;5.00;98.20;;;;;;2076593;28;20224;-63
2023/03/29 03:36:40;;;;;;;1.33;0.90;;;5.10;98.90;;;;;;2076582;28;20695;-63
2023/03/29 03:37:45;;;;;;;1.55;1.00;;;5.00;98.90;;;;;;2080646;28;20217;-63
2023/03/29 03:38:52;;;;;;;1.25;1.15;;;5.10;99.70;;;;;;2077931;28;20195;-63
2023/03/29 03:39:58;;;;;;;2.75;1.50;;;5.10;98.60;;;;;;2076941;28;20683;-63
2023/03/29 03:41:06;;;;;;;1.63;0.77;;;5.00;98.50;;;;;;2077266;28;20198;-63
2023/03/29 03:42:10;;;;;;;1.70;0.80;;;5.00;99.00;;;;;;2076313;28;20209;-63
2023/03/29 03:43:15;;;;;;;2.55;0.90;;;5.10;99.50;;;;;;2075961;28;20267;-63
2023/03/29 03:44:21;;;;;;;4.18;0.90;;;5.10;99.70;;;;;;2076209;28;20188;-63
2023/03/29 03:45:27;;;;;;;1.75;0.90;;;5.10;99.70;;;;;;2075855;28;20197;-63
2023/03/29 03:46:32;;;;;;;4.35;0.80;;;5.10;99.90;;;;;;2076537;28;20674;-63
2023/03/29 03:47:38;;;;;;;1.90;0.82;;;5.20;99.90;;;;;;2076370;28;20196;-63
2023/03/29 03:48:45;;;;;;;1.13;0.80;;;5.30;99.80;;;;;;2076691;28;20170;-64
2023/03/29 03:49:51;;;;;;;5.50;0.90;;;5.30;99.40;;;;;;2076433;28;20296;-63
2023/03/29 03:50:57;;;;;;;0.80;0.80;;;5.30;99.40;;;;;;2076632;28;20673;-63
2023/03/29 03:52:03;;;;;;;2.15;0.90;;;5.30;99.60;;;;;;2075523;28;20201;-63
2023/03/29 03:53:09;;;;;;;1.80;1.02;;;5.40;99.80;;;;;;2077080;28;20280;-64
2023/03/29 03:54:10;;;;;;;1.13;0.90;;;5.50;99.90;;;;;;2076956;28;20762;-63
2023/03/29 03:55:15;;;;;;;1.17;1.00;;;5.50;99.80;;;;;;2077107;28;20263;-63
2023/03/29 03:56:21;;;;;;;1.55;1.35;;;5.60;99.90;;;;;;2076510;28;20185;-64
2023/03/29 03:57:27;;;;;;;1.38;1.02;;;5.70;99.90;;;;;;2076300;28;20625;-64
2023/03/29 03:58:34;;;;;;;1.35;0.82;;;5.70;99.90;;;;;;2076532;28;20197;-63
2023/03/29 03:59:39;;;;;;;1.48;0.75;;;5.80;99.90;;;;;;2075825;28;20223;-64
2023/03/29 04:00:50;;;;;;;1.27;1.17;;;5.70;99.90;;;;;;2076023;28;20274;-63
2023/03/29 04:01:56;;;;;;;2.53;0.90;;;5.70;99.90;;;;;;2076499;28;20186;-64
2023/03/29 04:03:04;;;;;;;4.88;1.10;;;5.60;99.90;;;;;;2076990;28;20193;-64
2023/03/29 04:04:11;;;;;;;1.98;1.10;;;5.60;99.90;;;;;;2076843;28;20609;-63
2023/03/29 04:05:16;;;;;;;1.08;0.93;;;5.60;99.90;;;;;;2076732;28;20181;-63
2023/03/29 04:06:22;;;;;;;1.90;1.02;;;5.50;99.90;;;;;;2076266;28;20196;-63
2023/03/29 04:07:28;;;;;;;3.40;1.10;;;5.40;99.90;;;;;;2082727;28;20253;-63
2023/03/29 04:08:33;;;;;;;1.60;1.08;;;5.50;99.90;;;;;;2082001;28;20579;-63
2023/03/29 04:09:39;;;;;;;2.55;1.00;;;5.50;99.90;;;;;;2077416;28;20185;-63
2023/03/29 04:10:54;;;;;;;1.08;0.98;;;5.50;99.90;;;;;;2076966;28;20326;-63
2023/03/29 04:12:00;;;;;;;2.53;1.10;;;5.50;99.90;;;;;;2076460;28;20189;-63
2023/03/29 04:13:05;;;;;;;1.55;1.10;;;5.60;99.90;;;;;;2076538;28;20193;-63
2023/03/29 04:14:10;;;;;;;1.90;1.10;;;5.50;99.90;;;;;;2076548;28;20231;-63
2023/03/29 04:15:16;;;;;;;1.63;1.00;;;5.50;99.90;;;;;;2076738;28;20204;-63
2023/03/29 04:16:23;;;;;;;1.00;0.82;;;5.50;99.90;;;;;;2077619;28;20209;-63
2023/03/29 04:17:28;;;;;;;1.17;0.90;;;5.50;99.90;;;;;;2078190;28;20185;-63
2023/03/29 04:18:34;;;;;;;1.10;0.95;;;5.50;99.90;;;;;;2078166;28;20173;-63
2023/03/29 04:19:40;;;;;;;1.95;1.00;;;5.50;99.90;;;;;;2078245;28;20186;-64
2023/03/29 04:20:46;;;;;;;3.63;0.88;;;5.40;99.90;;;;;;2078018;28;20323;-62
2023/03/29 04:21:52;;;;;;;4.15;1.02;;;5.30;99.90;;;;;;2077907;28;20226;-62
2023/03/29 04:22:58;;;;;;;1.80;1.20;;;5.20;99.90;;;;;;2078085;28;20268;-62
2023/03/29 04:24:04;;;;;;;1.60;1.00;;;5.10;99.90;;;;;;2078897;28;20190;-62
2023/03/29 04:25:10;;;;;;;2.90;1.63;;;5.10;99.90;;;;;;2078437;28;20208;-62
2023/03/29 04:26:16;;;;;;;3.10;1.10;;;5.20;99.90;;;;;;2078387;28;20200;-62
2023/03/29 04:27:22;;;;;;;2.47;1.02;;;5.20;99.90;;;;;;2077863;28;20181;-61
2023/03/29 04:28:28;;;;;;;3.33;1.38;;;5.30;99.90;;;;;;2078079;28;20190;-63
2023/03/29 04:29:34;;;;;;;2.38;1.27;;;5.40;99.90;;;;;;2077132;28;20187;-62
2023/03/29 04:30:39;;;;;;;3.10;1.35;;;5.50;99.90;;;;;;2077467;28;20559;-62
2023/03/29 04:31:45;;;;;;;2.17;1.45;;;5.50;99.90;;;;;;2077787;28;20272;-62
2023/03/29 04:32:51;;;;;;;2.97;2.45;;;5.50;99.90;;;;;;2077936;28;20187;-62
2023/03/29 04:33:57;;;;;;;8.82;6.38;;;5.50;99.90;;;;;;2077523;28;20212;-63
2023/03/29 04:35:05;;;;;;;4.45;3.78;;;5.50;99.90;;;;;;2077352;28;20202;-63
2023/03/29 04:36:09;;;;;;;3.67;1.90;;;5.60;99.90;;;;;;2077948;28;20662;-62
2023/03/29 04:37:20;;;;;;;3.13;1.55;;;5.60;99.90;;;;;;2077842;28;20220;-62
2023/03/29 04:38:26;;;;;;;2.85;1.40;;;5.50;99.90;;;;;;2078448;28;20185;-62
2023/03/29 04:39:33;;;;;;;2.35;1.30;;;5.50;99.90;;;;;;2078417;28;20244;-62
2023/03/29 04:40:38;;;;;;;5.07;3.83;;;5.40;99.90;;;;;;2078454;28;20185;-64
2023/03/29 04:41:44;;;;;;;2.40;1.73;;;5.30;99.90;;;;;;2077546;28;20189;-62
2023/03/29 04:42:50;;;;;;;1.73;1.60;;;5.30;99.90;;;;;;2077457;28;20720;-62
2023/03/29 04:43:56;;;;;;;2.92;2.60;;;5.30;99.90;;;;;;2081362;28;20217;-62
2023/03/29 04:45:02;;;;;;;2.38;1.92;;;5.30;99.90;;;;;;2078242;28;20650;-63
2023/03/29 04:46:06;;;;;;;2.55;1.90;;;5.30;99.90;;;;;;2081335;28;20243;-63
2023/03/29 04:47:13;;;;;;;2.53;1.80;;;5.40;99.90;;;;;;2080759;28;20595;-63
2023/03/29 04:48:19;;;;;;;2.30;1.50;;;5.20;99.90;;;;;;2076385;28;20194;-62
2023/03/29 04:49:25;;;;;;;2.10;1.70;;;5.30;99.90;;;;;;2077886;28;20200;-61
2023/03/29 04:50:31;;;;;;;2.40;1.90;;;5.30;99.90;;;;;;2077664;28;20190;-62
2023/03/29 04:51:36;;;;;;;3.25;1.55;;;5.20;99.90;;;;;;2077633;28;20208;-61
2023/03/29 04:52:44;;;;;;;2.10;1.67;;;5.20;99.90;;;;;;2077673;28;20219;-63
2023/03/29 04:53:50;;;;;;;2.47;1.98;;;5.30;99.90;;;;;;2077561;28;20217;-63
2023/03/29 04:54:55;;;;;;;1.85;1.60;;;5.30;99.90;;;;;;2078280;28;20195;-63
2023/03/29 04:56:01;;;;;;;2.75;1.50;;;5.30;99.90;;;;;;2078219;28;20186;-63
2023/03/29 04:57:06;;;;;;;2.75;1.60;;;5.40;99.90;;;;;;2078400;28;20181;-63
2023/03/29 04:58:10;;;;;;;2.50;1.50;;;5.40;99.90;;;;;;2077610;28;20293;-63
2023/03/29 04:59:16;;;;;;;2.60;1.73;;;5.50;99.90;;;;;;2077779;28;20673;-63
2023/03/29 05:00:26;;;;;;;2.55;1.75;;;5.50;99.90;;;;;;2077518;28;20194;-63
2023/03/29 05:01:31;;;;;;;2.92;1.90;;;5.60;99.90;;;;;;2077377;28;20177;-63
2023/03/29 05:02:37;;;;;;;3.80;1.52;;;5.50;99.80;;;;;;2077533;28;20626;-63
2023/03/29 05:03:43;;;;;;;2.65;1.63;;;5.50;98.60;;;;;;2078022;28;20350;-63
2023/03/29 05:04:49;;;;;;;2.40;1.60;;;5.40;98.40;;;;;;2080128;28;20181;-63
2023/03/29 05:05:55;;;;;;;4.45;2.78;;;5.40;98.50;;;;;;2077771;28;20178;-63
2023/03/29 05:07:01;;;;;;;2.97;1.77;;;5.50;99.00;;;;;;2077638;28;20609;-63
2023/03/29 05:08:04;;;;;;;4.43;2.08;;;5.40;99.90;;;;;;2077688;28;20193;-63
2023/03/29 05:09:09;;;;;;;3.70;1.67;;;5.30;98.90;;;;;;2078208;28;20259;-63
2023/03/29 05:10:17;;;;;;;4.70;1.60;;;5.30;98.40;;;;;;2077597;28;20232;-63
2023/03/29 05:11:24;;;;;;;3.40;1.77;;;5.20;99.10;;;;;;2077576;28;20188;-63
2023/03/29 05:12:29;;;;;;;2.42;1.92;;;5.20;99.10;;;;;;2077590;28;20194;-63
2023/03/29 05:13:36;;;;;;;1.73;1.63;;;5.20;99.80;;;;;;2077598;28;20599;-62
2023/03/29 05:14:42;;;;;;;3.15;1.35;;;5.30;99.90;;;;;;2077425;28;20189;-63
2023/03/29 05:15:47;;;;;;;2.30;1.90;;;5.30;99.90;;;;;;2077562;28;20718;-63
2023/03/29 05:16:53;;;;;;;3.05;1.80;;;5.30;99.90;;;;;;2077447;28;20201;-63
2023/03/29 05:17:59;;;;;;;2.05;1.60;;;5.40;99.90;;;;;;2077520;28;20213;-63
2023/03/29 05:19:04;;;;;;;2.75;2.10;;;5.30;99.90;;;;;;2077431;28;20196;-63
2023/03/29 05:20:10;;;;;;;1.55;1.45;;;5.30;99.90;;;;;;2077588;28;20173;-63
2023/03/29 05:21:17;;;;;;;1.63;1.50;;;5.30;99.90;;;;;;2077316;28;20197;-63
2023/03/29 05:22:23;;;;;;;2.90;1.90;;;5.20;99.90;;;;;;2077669;28;20182;-63
2023/03/29 05:23:29;;;;;;;2.83;1.75;;;5.20;99.90;;;;;;2078130;28;20209;-63
2023/03/29 05:24:35;;;;;;;2.35;1.75;;;5.30;99.90;;;;;;2079269;28;20953;-62
2023/03/29 05:25:42;;;;;;;3.28;1.70;;;5.30;99.90;;;;;;2077897;28;20265;-63
2023/03/29 05:26:50;;;;;;;3.08;1.70;;;5.40;99.90;;;;;;2077719;28;20178;-63
2023/03/29 05:27:57;;;;;;;2.83;1.98;;;5.30;99.90;;;;;;2078141;28;20327;-62
2023/03/29 05:29:03;;;;;;;2.33;1.77;;;5.30;99.90;;;;;;2077580;28;20227;-62
2023/03/29 05:30:05;;;;;;;2.28;1.80;;;5.30;99.90;;;;;;2077346;28;20189;-62
2023/03/29 05:31:10;;;;;;;2.55;2.10;;;5.30;99.90;;;;;;2077420;28;20574;-62
2023/03/29 05:32:16;;;;;;;3.17;2.20;;;5.30;99.60;;;;;;2077263;28;20207;-62
2023/03/29 05:33:22;;;;;;;5.00;2.70;;;5.40;98.60;;;;;;2077337;28;20205;-63
2023/03/29 05:34:28;;;;;;;2.60;2.38;;;5.40;99.00;;;;;;2077336;28;20273;-63
2023/03/29 05:35:34;;;;;;;4.28;2.00;;;5.40;99.50;;;;;;2077400;28;20181;-63
2023/03/29 05:36:41;;;;;;;2.28;1.98;;;5.50;98.60;;;;;;2077314;28;20189;-62
2023/03/29 05:37:48;;;;;;;2.92;2.00;;;5.50;99.30;;;;;;2080699;28;20636;-62
2023/03/29 05:38:55;;;;;;;4.60;2.25;;;5.50;99.90;;;;;;2077399;28;20268;-63
2023/03/29 05:40:08;;;;;;;4.32;2.65;;;5.50;98.40;;;;;;2077395;28;20193;-63
2023/03/29 05:41:10;;;;;;;2.90;1.90;;;5.40;97.70;;;;;;2074195;28;20212;-62
2023/03/29 05:42:18;;;;;;;3.30;2.10;;;5.30;99.10;;;;;;2077700;28;20197;-63
2023/03/29 05:43:23;;;;;;;3.03;2.03;;;5.30;99.90;;;;;;2077943;28;20220;-63
2023/03/29 05:44:29;;;;;;;3.70;2.17;;;5.20;99.90;;;;;;2077285;28;20185;-62
2023/03/29 05:45:35;;;;;;;3.90;2.03;;;5.30;99.90;;;;;;2077403;28;20185;-63
2023/03/29 05:46:41;;;;;;;4.22;2.08;;;5.30;99.90;;;;;;2077161;28;20196;-63
2023/03/29 05:47:47;;;;;;;3.08;1.80;;;5.30;98.60;;;;;;2077307;28;20185;-63
2023/03/29 05:48:52;;;;;;;3.08;2.15;;;5.40;97.80;;;;;;2077131;28;20432;-63
2023/03/29 05:49:58;;;;;;;2.72;1.92;;;5.30;98.00;;;;;;2077439;28;20252;-62
2023/03/29 05:51:04;;;;;;;6.18;2.22;;;5.30;98.20;;;;;;2077915;28;20201;-62
2023/03/29 05:52:09;;;;;;;2.70;2.15;;;5.20;99.20;;;;;;2077460;28;20186;-63
2023/03/29 05:53:17;;;;;;;4.28;2.58;;;5.20;99.70;;;;;;2077745;28;20192;-63
2023/03/29 05:54:23;;;;;;;4.50;2.25;;;5.30;99.10;;;;;;2077089;28;20177;-63
2023/03/29 05:55:29;;;;;;;3.45;1.90;;;5.40;98.00;;;;;;2077235;28;20277;-63
2023/03/29 05:56:35;;;;;;;2.85;2.22;;;5.40;97.30;;;;;;2076994;28;20729;-63
2023/03/29 05:57:41;;;;;;;3.92;2.10;;;5.50;97.90;;;;;;2077113;28;20218;-63
2023/03/29 05:58:48;;;;;;;4.32;2.15;;;5.60;99.40;;;;;;2077567;28;20733;-63
2023/03/29 05:59:53;;;;;;;3.03;2.00;;;5.50;99.00;;;;;;2077200;28;20230;-62
2023/03/29 06:01:03;;;;;;;3.03;1.95;;;5.50;98.80;;;;;;2076985;28;20731;-63
2023/03/29 06:02:04;;;;;;;5.18;2.20;;;5.60;97.60;;;;;;2076240;28;20186;-62
2023/03/29 06:03:23;;;;;;;5.10;2.30;;;5.60;99.90;;;;;;2076492;28;20181;-63
2023/03/29 06:04:32;;;;;;;2.95;2.13;;;5.60;99.10;;;;;;2078529;28;20186;-63